createdAt,value
2018-06-14T00:02:04.488Z,16.47
2018-06-14T00:04:32.545Z,16.46
2018-06-14T00:07:00.593Z,16.46
2018-06-14T00:09:28.664Z,16.47
2018-06-14T00:11:56.717Z,16.46
2018-06-14T00:14:24.781Z,16.46
2018-06-14T00:16:52.825Z,16.45
2018-06-14T00:19:20.882Z,16.41
2018-06-14T00:21:48.932Z,16.40
2018-06-14T00:24:17.004Z,16.40
2018-06-14T00:26:45.076Z,16.40
2018-06-14T00:29:13.157Z,16.41
2018-06-14T00:31:41.212Z,16.41
2018-06-14T00:34:09.276Z,16.42
2018-06-14T00:36:37.321Z,16.44
2018-06-14T00:39:06.490Z,16.45
2018-06-14T00:41:34.612Z,16.44
2018-06-14T00:44:02.692Z,16.44
2018-06-14T00:46:30.778Z,16.43
2018-06-14T00:48:58.840Z,16.41
2018-06-14T00:51:26.913Z,16.40
2018-06-14T00:53:54.981Z,16.39
2018-06-14T00:56:23.051Z,16.40
2018-06-14T00:58:51.096Z,16.40
2018-06-14T01:01:19.195Z,16.38
2018-06-14T01:03:47.244Z,16.36
2018-06-14T01:06:15.667Z,16.37
2018-06-14T01:08:43.723Z,16.35
2018-06-14T01:11:11.775Z,16.32
2018-06-14T01:13:39.836Z,16.30
2018-06-14T01:16:09.027Z,16.26
2018-06-14T01:18:37.096Z,16.25
2018-06-14T01:21:05.152Z,16.23
2018-06-14T01:23:33.199Z,16.21
2018-06-14T01:26:01.273Z,16.21
2018-06-14T01:28:29.328Z,16.20
2018-06-14T01:30:57.416Z,16.21
2018-06-14T01:33:25.530Z,16.21
2018-06-14T01:35:53.636Z,16.22
2018-06-14T01:38:24.662Z,16.21
2018-06-14T01:40:52.956Z,16.20
2018-06-14T01:43:21.642Z,16.20
2018-06-14T01:45:49.736Z,16.18
2018-06-14T01:48:18.452Z,16.20
2018-06-14T01:50:46.941Z,16.20
2018-06-14T01:53:15.090Z,16.21
2018-06-14T01:55:43.140Z,16.21
2018-06-14T01:58:11.199Z,16.21
2018-06-14T02:00:39.260Z,16.22
2018-06-14T02:03:07.308Z,16.22
2018-06-14T02:05:35.375Z,16.23
2018-06-14T02:08:03.416Z,16.23
2018-06-14T02:10:31.499Z,16.22
2018-06-14T02:12:59.544Z,16.19
2018-06-14T02:15:28.695Z,16.16
2018-06-14T02:17:57.264Z,16.13
2018-06-14T02:20:25.316Z,16.10
2018-06-14T02:22:53.443Z,16.04
2018-06-14T02:25:21.496Z,15.93
2018-06-14T02:27:49.750Z,15.91
2018-06-14T02:30:17.779Z,15.86
2018-06-14T02:32:45.907Z,15.82
2018-06-14T02:35:14.056Z,15.78
2018-06-14T02:37:42.764Z,15.73
2018-06-14T02:40:12.554Z,15.71
2018-06-14T02:42:41.148Z,15.66
2018-06-14T02:45:09.213Z,15.60
2018-06-14T02:47:37.271Z,15.56
2018-06-14T02:50:05.693Z,15.52
2018-06-14T02:52:33.940Z,15.44
2018-06-14T02:55:01.982Z,15.43
2018-06-14T02:57:30.107Z,15.39
2018-06-14T02:59:58.350Z,15.35
2018-06-14T03:02:26.416Z,15.32
2018-06-14T03:04:54.467Z,15.29
2018-06-14T03:07:27.976Z,15.25
2018-06-14T03:09:56.060Z,15.21
2018-06-14T03:12:24.105Z,15.18
2018-06-14T03:14:52.178Z,15.15
2018-06-14T03:17:21.295Z,15.13
2018-06-14T03:19:50.648Z,15.09
2018-06-14T03:22:18.980Z,15.07
2018-06-14T03:24:47.041Z,15.05
2018-06-14T03:27:15.140Z,15.02
2018-06-14T03:29:43.176Z,14.98
2018-06-14T03:32:11.209Z,14.98
2018-06-14T03:34:39.247Z,14.91
2018-06-14T03:37:07.312Z,14.87
2018-06-14T03:39:35.344Z,14.85
2018-06-14T03:42:08.633Z,14.86
2018-06-14T03:44:37.949Z,14.86
2018-06-14T03:47:07.448Z,14.86
2018-06-14T03:49:36.143Z,14.86
2018-06-14T03:52:04.191Z,14.84
2018-06-14T03:54:32.468Z,14.85
2018-06-14T03:57:00.581Z,14.87
2018-06-14T03:59:28.652Z,14.89
2018-06-14T04:01:56.903Z,14.90
2018-06-14T04:04:25.021Z,14.91
2018-06-14T04:06:53.080Z,14.95
2018-06-14T04:09:21.120Z,14.97
2018-06-14T04:11:49.176Z,14.99
2018-06-14T04:14:17.216Z,15.01
2018-06-14T04:16:45.288Z,15.03
2018-06-14T04:19:13.357Z,15.04
2018-06-14T04:21:41.421Z,15.08
2018-06-14T04:24:09.476Z,15.10
2018-06-14T04:26:37.532Z,15.14
2018-06-14T04:29:05.688Z,15.18
2018-06-14T04:31:33.730Z,15.27
2018-06-14T04:34:01.775Z,15.35
2018-06-14T04:36:29.809Z,15.41
2018-06-14T04:38:57.892Z,15.41
2018-06-14T04:41:25.940Z,15.45
2018-06-14T04:43:53.996Z,15.51
2018-06-14T04:46:22.028Z,15.51
2018-06-14T04:48:50.061Z,15.56
2018-06-14T04:51:18.101Z,15.58
2018-06-14T04:53:46.147Z,15.61
2018-06-14T04:56:14.339Z,15.66
2018-06-14T04:58:42.438Z,15.70
2018-06-14T05:01:10.501Z,15.69
2018-06-14T05:03:38.556Z,15.71
2018-06-14T05:06:06.592Z,15.72
2018-06-14T05:08:34.643Z,15.73
2018-06-14T05:11:02.728Z,15.78
2018-06-14T05:13:30.792Z,15.85
2018-06-14T05:16:01.268Z,15.94
2018-06-14T05:18:29.318Z,16.03
2018-06-14T05:20:57.349Z,16.08
2018-06-14T05:23:25.397Z,16.11
2018-06-14T05:25:53.499Z,16.17
2018-06-14T05:28:21.504Z,16.24
2018-06-14T05:30:49.540Z,16.30
2018-06-14T05:33:17.604Z,16.33
2018-06-14T05:35:45.677Z,16.35
2018-06-14T05:38:13.765Z,16.42
2018-06-14T05:40:41.819Z,16.52
2018-06-14T05:43:09.867Z,16.65
2018-06-14T05:45:37.904Z,16.76
2018-06-14T05:48:05.964Z,16.84
2018-06-14T05:50:34.014Z,16.97
2018-06-14T05:53:02.053Z,16.98
2018-06-14T05:55:30.175Z,17.02
2018-06-14T05:57:58.227Z,17.05
2018-06-14T06:00:26.273Z,17.06
2018-06-14T06:02:54.335Z,17.06
2018-06-14T06:05:22.372Z,17.15
2018-06-14T06:07:50.628Z,17.28
2018-06-14T06:10:18.669Z,17.36
2018-06-14T06:12:46.740Z,17.47
2018-06-14T06:15:14.796Z,17.56
2018-06-14T06:17:42.873Z,17.69
2018-06-14T06:20:17.773Z,17.78
2018-06-14T06:22:46.401Z,17.86
2018-06-14T06:25:14.503Z,17.98
2018-06-14T06:27:42.548Z,18.05
2018-06-14T06:30:10.589Z,18.12
2018-06-14T06:32:38.727Z,18.18
2018-06-14T06:35:06.775Z,18.20
2018-06-14T06:37:34.812Z,18.36
2018-06-14T06:40:02.884Z,18.47
2018-06-14T06:42:30.927Z,18.53
2018-06-14T06:44:59.055Z,18.53
2018-06-14T06:47:27.025Z,18.60
2018-06-14T06:49:55.076Z,18.77
2018-06-14T06:52:23.122Z,18.82
2018-06-14T06:54:51.193Z,18.81
2018-06-14T06:57:19.479Z,18.92
2018-06-14T06:59:47.624Z,19.01
2018-06-14T07:02:15.709Z,19.14
2018-06-14T07:04:43.768Z,19.31
2018-06-14T07:07:11.817Z,19.35
2018-06-14T07:09:39.880Z,19.50
2018-06-14T07:12:07.954Z,19.57
2018-06-14T07:14:36.009Z,19.73
2018-06-14T07:17:04.050Z,19.84
2018-06-14T07:19:32.098Z,19.96
2018-06-14T07:22:00.172Z,20.00
2018-06-14T07:24:28.255Z,20.08
2018-06-14T07:26:56.296Z,20.29
2018-06-14T07:29:24.352Z,20.35
2018-06-14T07:31:52.387Z,20.44
2018-06-14T07:34:20.436Z,20.57
2018-06-14T07:36:48.473Z,20.73
2018-06-14T07:39:16.516Z,20.91
2018-06-14T07:41:44.568Z,20.94
2018-06-14T07:44:12.684Z,20.88
2018-06-14T07:46:40.729Z,20.85
2018-06-14T07:49:08.792Z,20.93
2018-06-14T07:51:36.825Z,20.95
2018-06-14T07:54:04.926Z,20.87
2018-06-14T07:56:32.926Z,20.82
2018-06-14T07:59:00.975Z,20.83
2018-06-14T08:01:29.032Z,20.73
2018-06-14T08:03:57.067Z,20.71
2018-06-14T08:06:25.116Z,20.69
2018-06-14T08:08:53.141Z,20.63
2018-06-14T08:11:21.192Z,20.75
2018-06-14T08:13:49.236Z,20.95
2018-06-14T08:16:17.289Z,20.98
2018-06-14T08:18:45.320Z,20.97
2018-06-14T08:21:13.369Z,21.02
2018-06-14T08:23:41.408Z,21.27
2018-06-14T08:26:09.476Z,21.71
2018-06-14T08:28:37.548Z,22.10
2018-06-14T08:31:05.614Z,22.23
2018-06-14T08:33:33.696Z,22.46
2018-06-14T08:36:01.761Z,22.60
2018-06-14T08:38:30.011Z,22.84
2018-06-14T08:40:58.073Z,23.03
2018-06-14T08:43:26.115Z,23.33
2018-06-14T08:45:54.220Z,23.67
2018-06-14T08:48:22.272Z,23.96
2018-06-14T08:50:50.344Z,23.84
2018-06-14T08:53:18.414Z,23.98
2018-06-14T08:55:46.514Z,24.07
2018-06-14T08:58:14.549Z,24.33
2018-06-14T09:00:42.630Z,24.67
2018-06-14T09:03:12.197Z,24.75
2018-06-14T09:05:40.296Z,24.79
2018-06-14T09:08:08.353Z,24.95
2018-06-14T09:10:36.411Z,25.18
2018-06-14T09:13:04.464Z,25.23
2018-06-14T09:15:32.528Z,25.57
2018-06-14T09:18:00.593Z,25.89
2018-06-14T09:20:28.660Z,25.74
2018-06-14T09:22:56.732Z,25.93
2018-06-14T09:25:24.813Z,26.14
2018-06-14T09:27:52.892Z,26.27
2018-06-14T09:30:21.025Z,26.27
2018-06-14T09:32:49.105Z,26.41
2018-06-14T09:35:17.180Z,26.51
2018-06-14T09:37:45.252Z,26.68
2018-06-14T09:40:13.320Z,26.91
2018-06-14T09:42:41.480Z,27.09
2018-06-14T09:45:09.557Z,27.15
2018-06-14T09:47:37.625Z,27.19
2018-06-14T09:50:05.702Z,27.36
2018-06-14T09:52:33.761Z,27.42
2018-06-14T09:55:01.808Z,27.55
2018-06-14T09:57:29.893Z,27.82
2018-06-14T09:59:57.956Z,28.13
2018-06-14T10:02:26.035Z,28.05
2018-06-14T10:04:54.088Z,28.21
2018-06-14T10:07:22.152Z,28.39
2018-06-14T10:09:50.196Z,28.54
2018-06-14T10:12:18.284Z,28.63
2018-06-14T10:14:46.393Z,28.36
2018-06-14T10:17:14.453Z,28.00
2018-06-14T10:19:42.512Z,27.67
2018-06-14T10:22:10.592Z,27.73
2018-06-14T10:24:38.669Z,28.00
2018-06-14T10:27:06.740Z,28.33
2018-06-14T10:29:34.816Z,28.07
2018-06-14T10:32:02.876Z,28.13
2018-06-14T10:34:30.937Z,28.33
2018-06-14T10:36:59.010Z,28.43
2018-06-14T10:39:27.080Z,28.74
2018-06-14T10:41:55.158Z,28.52
2018-06-14T10:44:23.208Z,28.05
2018-06-14T10:46:51.270Z,27.59
2018-06-14T10:49:19.347Z,27.61
2018-06-14T10:51:47.453Z,27.78
2018-06-14T10:54:15.508Z,27.87
2018-06-14T10:56:43.564Z,28.15
2018-06-14T10:59:11.654Z,28.54
2018-06-14T11:01:39.720Z,28.77
2018-06-14T11:04:07.809Z,28.84
2018-06-14T11:06:35.859Z,28.77
2018-06-14T11:09:05.796Z,28.98
2018-06-14T11:11:33.848Z,28.93
2018-06-14T11:14:01.923Z,29.08
2018-06-14T11:16:29.961Z,29.25
2018-06-14T11:18:58.009Z,29.47
2018-06-14T11:21:26.069Z,29.64
2018-06-14T11:23:54.130Z,29.66
2018-06-14T11:26:22.183Z,29.89
2018-06-14T11:28:50.457Z,29.76
2018-06-14T11:31:18.500Z,29.17
2018-06-14T11:33:46.543Z,28.75
2018-06-14T11:36:14.594Z,28.64
2018-06-14T11:38:42.640Z,28.89
2018-06-14T11:41:10.684Z,29.19
2018-06-14T11:43:38.729Z,29.54
2018-06-14T11:46:06.777Z,29.81
2018-06-14T11:48:34.830Z,29.33
2018-06-14T11:51:02.858Z,29.27
2018-06-14T11:53:30.968Z,29.57
2018-06-14T11:55:59.027Z,29.80
2018-06-14T11:58:27.104Z,29.93
2018-06-14T12:00:55.140Z,29.80
2018-06-14T12:03:23.251Z,29.28
2018-06-14T12:05:51.566Z,29.27
2018-06-14T12:08:19.666Z,29.03
2018-06-14T12:10:47.737Z,29.07
2018-06-14T12:13:15.795Z,29.38
2018-06-14T12:15:43.901Z,29.56
2018-06-14T12:18:12.068Z,29.77
2018-06-14T12:20:40.107Z,30.01
2018-06-14T12:23:08.621Z,30.03
2018-06-14T12:25:36.692Z,30.02
2018-06-14T12:28:05.020Z,30.02
2018-06-14T12:30:33.064Z,30.10
2018-06-14T12:33:01.309Z,30.24
2018-06-14T12:35:29.375Z,30.11
2018-06-14T12:37:57.530Z,29.63
2018-06-14T12:40:25.623Z,29.53
2018-06-14T12:42:53.785Z,29.67
2018-06-14T12:45:21.860Z,29.50
2018-06-14T12:47:49.919Z,29.09
2018-06-14T12:50:18.004Z,28.84
2018-06-14T12:52:46.184Z,28.64
2018-06-14T12:55:14.255Z,28.32
2018-06-14T12:57:42.315Z,28.46
2018-06-14T13:00:10.357Z,28.46
2018-06-14T13:02:38.400Z,28.34
2018-06-14T13:05:06.454Z,28.35
2018-06-14T13:07:34.501Z,28.42
2018-06-14T13:10:02.544Z,28.78
2018-06-14T13:12:30.630Z,28.91
2018-06-14T13:14:58.708Z,28.96
2018-06-14T13:17:26.801Z,29.15
2018-06-14T13:19:54.845Z,29.16
2018-06-14T13:22:22.961Z,29.15
2018-06-14T13:24:51.020Z,29.23
2018-06-14T13:27:19.060Z,29.11
2018-06-14T13:29:47.128Z,29.15
2018-06-14T13:32:15.192Z,29.08
2018-06-14T13:34:43.236Z,28.96
2018-06-14T13:37:11.340Z,28.71
2018-06-14T13:39:39.398Z,28.77
2018-06-14T13:42:07.473Z,28.92
2018-06-14T13:44:35.552Z,28.89
2018-06-14T13:47:03.616Z,28.86
2018-06-14T13:49:31.679Z,29.03
2018-06-14T13:51:59.748Z,29.37
2018-06-14T13:54:27.834Z,29.47
2018-06-14T13:56:55.895Z,29.25
2018-06-14T13:59:23.931Z,29.10
2018-06-14T14:01:51.980Z,28.99
2018-06-14T14:04:20.061Z,29.02
2018-06-14T14:06:48.097Z,28.90
2018-06-14T14:09:16.156Z,28.94
2018-06-14T14:11:44.201Z,28.89
2018-06-14T14:14:12.294Z,28.69
2018-06-14T14:16:40.396Z,28.58
2018-06-14T14:19:08.444Z,28.50
2018-06-14T14:21:36.492Z,28.45
2018-06-14T14:24:04.564Z,28.37
2018-06-14T14:26:32.684Z,28.36
2018-06-14T14:29:00.732Z,28.24
2018-06-14T14:31:28.801Z,28.12
2018-06-14T14:33:56.864Z,28.04
2018-06-14T14:36:24.906Z,28.03
2018-06-14T14:38:52.939Z,27.99
2018-06-14T14:41:20.976Z,28.11
2018-06-14T14:43:49.028Z,28.40
2018-06-14T14:46:17.072Z,28.83
2018-06-14T14:48:45.173Z,28.90
2018-06-14T14:51:13.213Z,29.01
2018-06-14T14:53:41.304Z,28.87
2018-06-14T14:56:09.457Z,28.43
2018-06-14T14:58:37.549Z,28.20
2018-06-14T15:01:05.617Z,28.14
2018-06-14T15:03:33.701Z,28.11
2018-06-14T15:06:01.766Z,28.06
2018-06-14T15:08:30.020Z,27.91
2018-06-14T15:10:58.108Z,27.81
2018-06-14T15:13:26.161Z,27.78
2018-06-14T15:15:54.267Z,27.63
2018-06-14T15:18:22.308Z,27.62
2018-06-14T15:20:50.356Z,27.71
2018-06-14T15:23:18.400Z,27.84
2018-06-14T15:25:46.498Z,27.81
2018-06-14T15:28:14.583Z,27.82
2018-06-14T15:30:42.664Z,27.80
2018-06-14T15:33:10.725Z,27.72
2018-06-14T15:35:38.797Z,27.65
2018-06-14T15:38:06.868Z,27.61
2018-06-14T15:40:34.926Z,27.55
2018-06-14T15:43:03.040Z,27.43
2018-06-14T15:45:31.146Z,27.44
2018-06-14T15:47:59.252Z,27.41
2018-06-14T15:50:27.300Z,27.38
2018-06-14T15:52:55.340Z,27.30
2018-06-14T15:55:34.800Z,27.23
2018-06-14T15:58:02.861Z,27.12
2018-06-14T16:00:30.968Z,27.03
2018-06-14T16:02:59.004Z,26.88
2018-06-14T16:05:27.108Z,26.70
2018-06-14T16:07:55.190Z,26.66
2018-06-14T16:10:23.234Z,26.58
2018-06-14T16:12:51.333Z,26.52
2018-06-14T16:15:19.391Z,26.37
2018-06-14T16:17:47.460Z,26.31
2018-06-14T16:20:15.522Z,26.20
2018-06-14T16:22:43.588Z,26.21
2018-06-14T16:25:11.720Z,26.26
2018-06-14T16:27:40.217Z,26.24
2018-06-14T16:30:08.340Z,26.20
2018-06-14T16:32:36.392Z,26.15
2018-06-14T16:35:04.852Z,26.08
2018-06-14T16:37:32.901Z,25.97
2018-06-14T16:40:01.014Z,25.86
2018-06-14T16:42:29.082Z,25.77
2018-06-14T16:44:57.200Z,25.57
2018-06-14T16:47:25.237Z,25.41
2018-06-14T16:49:53.294Z,25.14
2018-06-14T16:52:21.384Z,24.63
2018-06-14T16:54:49.436Z,24.18
2018-06-14T16:57:17.496Z,23.91
2018-06-14T16:59:45.548Z,23.50
2018-06-14T17:02:13.648Z,23.12
2018-06-14T17:04:41.753Z,22.81
2018-06-14T17:07:09.832Z,22.62
2018-06-14T17:09:37.872Z,22.41
2018-06-14T17:12:05.974Z,22.25
2018-06-14T17:14:34.144Z,22.16
2018-06-14T17:17:02.240Z,21.99
2018-06-14T17:19:30.286Z,21.79
2018-06-14T17:21:58.444Z,21.72
2018-06-14T17:24:27.323Z,21.65
2018-06-14T17:26:57.561Z,21.55
2018-06-14T17:29:26.636Z,21.41
2018-06-14T17:31:54.701Z,21.31
2018-06-14T17:34:22.751Z,21.15
2018-06-14T17:36:51.229Z,21.11
2018-06-14T17:39:19.296Z,21.14
2018-06-14T17:41:47.738Z,21.20
2018-06-14T17:44:15.873Z,21.27
2018-06-14T17:46:43.935Z,21.32
2018-06-14T17:49:11.986Z,21.34
2018-06-14T17:51:40.049Z,21.33
2018-06-14T17:54:08.205Z,21.27
2018-06-14T17:56:36.273Z,21.17
2018-06-14T17:59:04.376Z,21.07
2018-06-14T18:01:32.463Z,21.00
2018-06-14T18:04:00.512Z,20.96
2018-06-14T18:06:28.606Z,20.91
2018-06-14T18:08:56.657Z,20.86
2018-06-14T18:11:24.924Z,20.79
2018-06-14T18:13:52.985Z,20.73
2018-06-14T18:16:21.052Z,20.68
2018-06-14T18:18:49.093Z,20.62
2018-06-14T18:21:17.144Z,20.60
2018-06-14T18:23:45.236Z,20.57
2018-06-14T18:26:13.316Z,20.53
2018-06-14T18:28:41.372Z,20.52
2018-06-14T18:31:09.444Z,20.47
2018-06-14T18:33:37.503Z,20.44
2018-06-14T18:36:05.618Z,20.42
2018-06-14T18:38:33.696Z,20.36
2018-06-14T18:41:01.756Z,20.32
2018-06-14T18:43:29.826Z,20.25
2018-06-14T18:45:58.086Z,20.22
2018-06-14T18:48:26.150Z,20.20
2018-06-14T18:50:54.235Z,20.15
2018-06-14T18:53:22.512Z,20.16
2018-06-14T18:55:50.577Z,20.10
2018-06-14T18:58:18.630Z,20.07
2018-06-14T19:00:46.712Z,20.05
2018-06-14T19:03:14.781Z,20.02
2018-06-14T19:05:42.872Z,20.00
2018-06-14T19:08:11.004Z,20.01
2018-06-14T19:10:39.061Z,19.99
2018-06-14T19:13:07.132Z,20.01
2018-06-14T19:15:35.176Z,19.99
2018-06-14T19:18:03.246Z,20.01
2018-06-14T19:20:31.296Z,20.02
2018-06-14T19:22:59.356Z,20.00
2018-06-14T19:25:27.418Z,19.99
2018-06-14T19:27:55.549Z,19.95
2018-06-14T19:30:23.734Z,19.94
2018-06-14T19:32:51.803Z,19.87
2018-06-14T19:35:19.877Z,19.81
2018-06-14T19:37:48.005Z,19.77
2018-06-14T19:40:16.081Z,19.79
2018-06-14T19:42:44.140Z,19.80
2018-06-14T19:45:12.188Z,19.75
2018-06-14T19:47:40.272Z,19.66
2018-06-14T19:50:08.327Z,19.65
2018-06-14T19:52:36.397Z,19.63
2018-06-14T19:55:04.534Z,19.59
2018-06-14T19:57:32.600Z,19.60
2018-06-14T20:00:00.664Z,19.59
2018-06-14T20:02:28.749Z,19.56
2018-06-14T20:04:56.796Z,19.55
2018-06-14T20:07:24.856Z,19.52
2018-06-14T20:09:52.935Z,19.50
2018-06-14T20:12:21.001Z,19.51
2018-06-14T20:14:49.057Z,19.54
2018-06-14T20:17:17.153Z,19.54
2018-06-14T20:19:45.196Z,19.51
2018-06-14T20:22:14.064Z,19.46
2018-06-14T20:24:42.124Z,19.36
2018-06-14T20:27:10.237Z,19.33
2018-06-14T20:29:38.289Z,19.35
2018-06-14T20:32:06.397Z,19.37
2018-06-14T20:34:34.472Z,19.39
2018-06-14T20:37:02.528Z,19.34
2018-06-14T20:39:30.612Z,19.33
2018-06-14T20:41:58.762Z,19.33
2018-06-14T20:44:26.744Z,19.34
2018-06-14T20:46:54.802Z,19.29
2018-06-14T20:49:22.916Z,19.32
2018-06-14T20:51:51.029Z,19.30
2018-06-14T20:54:19.079Z,19.31
2018-06-14T20:56:47.137Z,19.29
2018-06-14T20:59:15.203Z,19.32
2018-06-14T21:01:43.303Z,19.33
2018-06-14T21:04:11.416Z,19.29
2018-06-14T21:06:39.476Z,19.27
2018-06-14T21:09:08.878Z,19.23
2018-06-14T21:11:36.981Z,19.22
2018-06-14T21:14:05.041Z,19.18
2018-06-14T21:16:33.105Z,19.16
2018-06-14T21:19:01.197Z,19.11
2018-06-14T21:21:29.351Z,19.09
2018-06-14T21:23:57.508Z,19.08
2018-06-14T21:26:25.583Z,19.06
2018-06-14T21:28:53.656Z,19.07
2018-06-14T21:31:21.764Z,19.07
2018-06-14T21:33:49.829Z,19.10
2018-06-14T21:36:17.900Z,19.12
2018-06-14T21:38:45.984Z,19.15
2018-06-14T21:41:14.044Z,19.13
2018-06-14T21:43:42.109Z,19.15
2018-06-14T21:46:10.164Z,19.14
2018-06-14T21:48:38.232Z,19.09
2018-06-14T21:51:06.299Z,19.03
2018-06-14T21:53:34.376Z,18.99
2018-06-14T21:56:02.424Z,18.97
2018-06-14T21:58:30.512Z,18.92
2018-06-14T22:00:58.595Z,18.88
2018-06-14T22:03:32.176Z,18.84
2018-06-14T22:06:00.236Z,18.83
2018-06-14T22:08:28.324Z,18.81
2018-06-14T22:10:56.414Z,18.79
2018-06-14T22:13:24.492Z,18.81
2018-06-14T22:15:52.545Z,18.88
2018-06-14T22:18:20.615Z,18.89
2018-06-14T22:20:48.685Z,18.86
2018-06-14T22:23:16.756Z,18.84
2018-06-14T22:25:44.833Z,18.79
2018-06-14T22:28:12.894Z,18.82
2018-06-14T22:30:40.996Z,18.83
2018-06-14T22:33:20.475Z,18.84
2018-06-14T22:35:48.545Z,18.85
2018-06-14T22:38:16.589Z,18.85
2018-06-14T22:40:44.655Z,18.83
2018-06-14T22:43:12.717Z,18.78
2018-06-14T22:45:40.780Z,18.75
2018-06-14T22:48:08.832Z,18.78
2018-06-14T22:50:48.246Z,18.78
2018-06-14T22:53:16.297Z,18.72
2018-06-14T22:55:44.367Z,18.76
2018-06-14T22:58:12.416Z,18.79
2018-06-14T23:01:47.955Z,18.79
2018-06-14T23:04:20.197Z,18.76
2018-06-14T23:06:48.312Z,18.78
2018-06-14T23:10:57.098Z,18.79
2018-06-14T23:13:25.173Z,18.73
2018-06-14T23:15:53.220Z,18.72
2018-06-14T23:18:21.285Z,18.70
2018-06-14T23:20:49.385Z,18.72
2018-06-14T23:23:17.483Z,18.71
2018-06-14T23:25:45.524Z,18.75
2018-06-14T23:28:13.588Z,18.75
2018-06-14T23:30:41.653Z,18.77
2018-06-14T23:33:09.698Z,18.79
2018-06-14T23:35:37.775Z,18.82
2018-06-14T23:38:05.830Z,18.84
2018-06-14T23:40:33.900Z,18.87
2018-06-14T23:43:01.953Z,18.82
2018-06-14T23:45:29.992Z,18.83
2018-06-14T23:47:58.054Z,18.84
2018-06-14T23:50:26.112Z,18.84
2018-06-14T23:52:54.176Z,18.84
2018-06-14T23:55:22.216Z,18.81
2018-06-14T23:57:50.290Z,18.80
